Time;durP1;ratioP1;P1;durP2;ratioP2;P2;SDS_P1;SDS_P2;PMS_P1;PMS_P2;Temp;Humidity;BMP_temperature;BMP_pressure;BME280_temperature;BME280_humidity;BME280_pressure;Samples;Min_cycle;Max_cycle;Signal;HPM_P1;HPM_P2
2023/12/11 00:01:44;;;;;;;;;0.00;0.00;;;;;16.32;100.00;100457.09;5036652;28;45392;-84
2023/12/11 00:04:11;;;;;;;;;0.00;0.00;;;;;16.31;100.00;100452.81;5037149;28;45309;-83
2023/12/11 00:06:36;;;;;;;;;0.00;0.00;;;;;16.40;100.00;100447.84;5037025;28;45306;-84
2023/12/11 00:09:02;;;;;;;;;0.00;0.00;;;;;16.37;100.00;100452.44;5037547;28;45406;-83
2023/12/11 00:11:27;;;;;;;;;0.00;0.00;;;;;16.33;100.00;100449.16;5036595;28;45313;-84
2023/12/11 00:13:52;;;;;;;;;0.00;0.00;;;;;16.35;100.00;100442.03;5037658;28;45346;-84
2023/12/11 00:16:18;;;;;;;;;0.00;0.00;;;;;16.34;100.00;100437.69;5036557;28;45272;-84
2023/12/11 00:18:43;;;;;;;;;0.00;0.00;;;;;16.30;100.00;100438.81;5036602;28;45995;-84
2023/12/11 00:21:09;;;;;;;;;0.00;0.00;;;;;16.34;100.00;100436.84;5037828;28;45563;-83
2023/12/11 00:23:34;;;;;;;;;0.00;0.00;;;;;16.33;100.00;100446.50;5019449;28;56863;-85
2023/12/11 00:25:59;;;;;;;;;0.00;0.00;;;;;16.40;100.00;100437.34;5037530;28;49262;-84
2023/12/11 00:28:25;;;;;;;;;0.00;0.00;;;;;16.50;100.00;100415.81;5036581;28;67229;-84
2023/12/11 00:30:50;;;;;;;;;0.00;0.00;;;;;16.38;100.00;100427.84;5036098;28;48637;-83
2023/12/11 00:33:15;;;;;;;;;0.00;0.00;;;;;16.42;100.00;100424.13;5019413;28;56902;-83
2023/12/11 00:35:41;;;;;;;;;0.00;0.00;;;;;16.34;100.00;100435.06;5037045;28;60853;-84
2023/12/11 00:38:07;;;;;;;;;0.00;0.00;;;;;16.28;100.00;100419.66;5036143;28;48088;-84
2023/12/11 00:40:32;;;;;;;;;0.00;0.00;;;;;16.26;100.00;100432.88;5035651;28;45333;-84
2023/12/11 00:42:57;;;;;;;;;0.00;0.00;;;;;16.24;100.00;100432.13;5038049;28;45454;-84
2023/12/11 00:45:23;;;;;;;;;0.00;0.00;;;;;16.23;100.00;100440.09;5039779;28;45352;-84
2023/12/11 00:47:48;;;;;;;;;0.00;0.00;;;;;16.19;100.00;100442.03;5039135;28;45364;-85
2023/12/11 00:50:14;;;;;;;;;0.00;0.00;;;;;16.21;100.00;100439.34;5038091;28;45348;-82
2023/12/11 00:52:39;;;;;;;;;0.00;0.00;;;;;16.28;100.00;100448.56;5038348;28;45369;-82
2023/12/11 00:55:05;;;;;;;;;0.00;0.00;;;;;16.30;100.00;100437.97;5037686;28;45398;-84
2023/12/11 00:57:31;;;;;;;;;0.00;0.00;;;;;16.15;100.00;100426.56;5036510;28;47192;-83
2023/12/11 00:59:56;;;;;;;;;0.00;0.00;;;;;16.11;100.00;100420.63;5035532;28;57306;-84
2023/12/11 01:02:22;;;;;;;;;0.00;0.00;;;;;16.14;100.00;100424.84;5037139;28;45392;-83
2023/12/11 01:04:47;;;;;;;;;0.00;0.00;;;;;16.17;100.00;100427.31;5035346;28;61694;-83
2023/12/11 01:07:12;;;;;;;;;0.00;0.00;;;;;16.19;100.00;100422.81;5018791;28;55397;-84
2023/12/11 01:09:38;;;;;;;;;0.00;0.00;;;;;16.21;100.00;100420.94;5035442;28;45426;-83
2023/12/11 01:12:03;;;;;;;;;0.00;0.00;;;;;16.17;100.00;100437.81;5036241;28;46073;-83
2023/12/11 01:14:30;;;;;;;;;0.00;0.00;;;;;16.20;100.00;100450.78;5035550;28;45614;-83
2023/12/11 01:16:56;;;;;;;;;0.25;0.25;;;;;16.08;100.00;100460.19;5036673;28;46283;-84
2023/12/11 01:19:21;;;;;;;;;0.00;0.00;;;;;16.12;100.00;100455.59;5035322;28;50919;-84
2023/12/11 01:21:46;;;;;;;;;0.00;0.00;;;;;16.23;100.00;100451.47;5036895;28;46416;-83
2023/12/11 01:24:12;;;;;;;;;0.00;0.00;;;;;16.25;100.00;100459.22;5035419;28;49982;-83
2023/12/11 01:26:38;;;;;;;;;0.00;0.00;;;;;16.13;100.00;100467.81;5035004;28;46196;-84
2023/12/11 01:29:03;;;;;;;;;0.00;0.00;;;;;16.20;100.00;100477.88;5035503;28;45368;-83
2023/12/11 01:31:29;;;;;;;;;0.00;0.00;;;;;16.15;100.00;100466.78;5037014;28;45324;-83
2023/12/11 01:33:54;;;;;;;;;0.00;0.00;;;;;16.08;100.00;100464.59;5035481;28;46701;-83
2023/12/11 01:36:19;;;;;;;;;0.00;0.00;;;;;16.19;100.00;100446.44;5035052;28;54505;-83
2023/12/11 01:38:45;;;;;;;;;0.00;0.00;;;;;16.02;100.00;100437.75;5036339;28;51073;-83
2023/12/11 01:41:10;;;;;;;;;0.00;0.00;;;;;16.14;100.00;100430.97;5036147;28;45342;-83
2023/12/11 01:43:35;;;;;;;;;0.00;0.00;;;;;16.19;100.00;100438.56;5035766;28;58691;-83
2023/12/11 01:46:13;;;;;;;;;0.00;0.00;;;;;16.31;100.00;100431.78;5035646;28;66337;-83
2023/12/11 01:48:39;;;;;;;;;0.00;0.00;;;;;16.26;100.00;100453.06;5035256;28;45638;-83
2023/12/11 01:51:05;;;;;;;;;0.00;0.00;;;;;16.25;100.00;100443.47;5034429;28;45314;-82
2023/12/11 01:53:31;;;;;;;;;0.00;0.00;;;;;16.43;100.00;100452.91;5034989;28;45487;-83
2023/12/11 01:55:57;;;;;;;;;0.00;0.00;;;;;16.33;100.00;100464.91;5034699;28;47746;-82
2023/12/11 01:58:22;;;;;;;;;0.00;0.00;;;;;16.31;100.00;100463.31;5035030;28;45475;-83
2023/12/11 02:00:48;;;;;;;;;0.00;0.00;;;;;16.42;100.00;100461.75;5034707;28;51445;-83
2023/12/11 02:03:13;;;;;;;;;0.00;0.00;;;;;16.30;100.00;100461.59;5034965;28;45539;-83
2023/12/11 02:05:42;;;;;;;;;0.00;0.00;;;;;16.33;100.00;100445.69;5036227;28;45332;-83
2023/12/11 02:08:08;;;;;;;;;0.00;0.00;;;;;16.31;100.00;100443.13;5033514;28;45448;-83
2023/12/11 02:10:35;;;;;;;;;0.00;0.00;;;;;16.22;100.00;100446.28;5041841;28;45377;-83
2023/12/11 02:13:00;;;;;;;;;0.00;0.00;;;;;16.32;100.00;100426.44;5038365;28;45436;-83
2023/12/11 02:15:43;;;;;;;;;0.00;0.00;;;;;16.28;100.00;100419.66;5055985;28;45468;-83
2023/12/11 02:18:10;;;;;;;;;0.00;0.00;;;;;16.30;100.00;100414.31;5013557;28;45805;-82
2023/12/11 02:20:36;;;;;;;;;0.00;0.00;;;;;16.28;100.00;100421.44;5034864;28;45436;-83
2023/12/11 02:23:20;;;;;;;;;0.00;0.00;;;;;16.26;100.00;100425.00;5017935;28;45502;-83
2023/12/11 02:25:48;;;;;;;;;0.00;0.00;;;;;16.39;100.00;100414.63;5035746;28;46393;-82
2023/12/11 02:28:14;;;;;;;;;0.00;0.00;;;;;16.43;100.00;100404.78;5034650;28;45443;-83
2023/12/11 02:30:48;;;;;;;;;0.00;0.00;;;;;16.38;100.00;100415.59;5017273;28;54381;-82
2023/12/11 02:33:14;;;;;;;;;0.00;0.00;;;;;16.38;100.00;100398.97;5035970;28;45381;-83
2023/12/11 02:35:41;;;;;;;;;0.00;0.00;;;;;16.35;100.00;100407.88;5035578;28;46240;-82
2023/12/11 02:38:06;;;;;;;;;0.00;0.00;;;;;16.21;100.00;100419.19;5017178;28;45357;-83
2023/12/11 02:40:31;;;;;;;;;0.00;0.00;;;;;16.43;100.00;100407.41;5000833;28;57838;-83
2023/12/11 02:42:57;;;;;;;;;0.00;0.00;;;;;16.39;100.00;100396.25;5017536;28;49940;-82
2023/12/11 02:45:22;;;;;;;;;0.00;0.00;;;;;16.55;100.00;100375.19;5017401;28;56722;-82
2023/12/11 02:47:47;;;;;;;;;0.00;0.00;;;;;16.55;100.00;100377.81;5000282;28;57392;-83
2023/12/11 02:50:13;;;;;;;;;0.00;0.00;;;;;16.52;100.00;100392.91;5035762;28;45334;-82
2023/12/11 02:52:38;;;;;;;;;0.00;0.00;;;;;16.47;100.00;100423.84;5035390;28;45259;-83
2023/12/11 02:55:04;;;;;;;;;0.00;0.00;;;;;16.53;100.00;100399.84;5017166;28;59017;-82
2023/12/11 02:57:29;;;;;;;;;0.00;0.00;;;;;16.51;100.00;100388.56;5017874;28;45585;-83
2023/12/11 02:59:55;;;;;;;;;0.00;0.00;;;;;16.50;100.00;100390.38;5037539;28;45353;-82
2023/12/11 03:02:20;;;;;;;;;0.00;0.00;;;;;16.45;100.00;100393.28;5036063;28;45515;-82
2023/12/11 03:04:45;;;;;;;;;0.00;0.00;;;;;16.52;100.00;100400.78;5036793;28;56862;-82
2023/12/11 03:07:11;;;;;;;;;0.00;0.00;;;;;16.40;100.00;100395.31;5036439;28;45407;-82
2023/12/11 03:09:36;;;;;;;;;0.75;0.75;;;;;16.45;100.00;100409.03;5031830;28;47859;-83
2023/12/11 03:12:01;;;;;;;;;0.00;0.00;;;;;16.48;100.00;100397.50;5034588;28;45447;-82
2023/12/11 03:14:27;;;;;;;;;0.00;0.00;;;;;16.33;100.00;100391.38;5035172;28;46018;-83
2023/12/11 03:16:52;;;;;;;;;0.00;0.00;;;;;16.34;100.00;100374.66;5008008;28;51754;-82
2023/12/11 03:19:17;;;;;;;;;0.00;0.00;;;;;16.38;100.00;100380.56;5015391;28;45408;-82
2023/12/11 03:21:43;;;;;;;;;0.00;0.00;;;;;16.33;100.00;100372.97;5033195;28;47135;-81
2023/12/11 03:24:08;;;;;;;;;0.00;0.00;;;;;16.30;100.00;100388.91;5018053;28;62263;-83
2023/12/11 03:26:34;;;;;;;;;0.00;0.00;;;;;16.24;100.00;100369.09;5017585;28;64662;-82
2023/12/11 03:28:59;;;;;;;;;0.00;0.00;;;;;16.31;100.00;100355.63;5033527;28;56286;-81
2023/12/11 03:31:25;;;;;;;;;0.00;0.00;;;;;16.19;100.00;100358.00;5018255;28;59501;-82
2023/12/11 03:33:50;;;;;;;;;0.00;0.00;;;;;16.38;100.00;100343.78;5018570;28;47226;-83
2023/12/11 03:36:15;;;;;;;;;0.00;0.00;;;;;16.22;100.00;100359.63;5017672;28;47692;-83
2023/12/11 03:38:41;;;;;;;;;0.00;0.00;;;;;16.35;100.00;100370.25;5018256;28;48018;-82
2023/12/11 03:41:07;;;;;;;;;0.00;0.00;;;;;16.32;100.00;100375.69;5018006;28;54923;-83
2023/12/11 03:43:32;;;;;;;;;1.00;1.00;;;;;16.13;100.00;100374.13;5020562;28;46350;-82
2023/12/11 03:45:59;;;;;;;;;0.00;0.00;;;;;16.38;100.00;100323.66;5018595;28;62774;-81
2023/12/11 03:48:25;;;;;;;;;0.00;0.00;;;;;16.37;100.00;100327.19;5000489;28;45477;-81
2023/12/11 03:50:50;;;;;;;;;0.00;0.00;;;;;16.41;100.00;100328.69;5033565;28;45357;-81
2023/12/11 03:53:15;;;;;;;;;0.00;0.00;;;;;16.24;100.00;100342.00;5017767;28;58223;-81
2023/12/11 03:55:41;;;;;;;;;1.00;1.00;;;;;16.33;100.00;100354.59;5018106;28;47361;-81
2023/12/11 03:58:06;;;;;;;;;0.00;0.00;;;;;16.26;100.00;100348.84;5017623;28;45385;-81
2023/12/11 04:00:31;;;;;;;;;0.00;0.00;;;;;16.29;100.00;100341.72;5016741;28;50836;-82
2023/12/11 04:02:57;;;;;;;;;0.00;0.00;;;;;16.43;100.00;100357.50;5032823;28;46091;-82
2023/12/11 04:05:22;;;;;;;;;0.00;0.00;;;;;16.87;100.00;100340.03;5033130;28;47891;-81
2023/12/11 04:07:48;;;;;;;;;0.00;0.00;;;;;16.57;100.00;100346.19;5033480;28;45444;-81
2023/12/11 04:10:13;;;;;;;;;0.00;0.00;;;;;16.59;100.00;100342.53;5021396;28;45484;-81
2023/12/11 04:12:41;;;;;;;;;0.00;0.00;;;;;16.78;100.00;100347.50;5037912;28;46213;-82
2023/12/11 04:15:07;;;;;;;;;0.00;0.00;;;;;16.78;100.00;100347.50;5037697;28;45430;-81
2023/12/11 04:17:32;;;;;;;;;0.00;0.00;;;;;16.54;100.00;100343.75;5037827;28;45357;-81
2023/12/11 04:19:57;;;;;;;;;0.00;0.00;;;;;16.72;100.00;100341.78;5022765;28;58088;-81
2023/12/11 04:22:23;;;;;;;;;0.00;0.00;;;;;16.73;100.00;100353.97;5017552;28;45488;-81
2023/12/11 04:24:48;;;;;;;;;0.00;0.00;;;;;16.66;100.00;100353.53;5017771;28;45244;-82
2023/12/11 04:27:13;;;;;;;;;0.00;0.00;;;;;16.65;100.00;100355.28;5017768;28;45388;-81
2023/12/11 04:29:39;;;;;;;;;0.00;0.00;;;;;16.59;100.00;100358.28;5017398;28;54795;-82
2023/12/11 04:32:05;;;;;;;;;0.00;0.00;;;;;16.55;100.00;100350.69;5017063;28;46136;-81
2023/12/11 04:34:30;;;;;;;;;0.00;0.00;;;;;16.54;100.00;100335.84;5017381;28;45435;-82
2023/12/11 04:36:55;;;;;;;;;0.00;0.00;;;;;16.69;100.00;100337.56;5016286;28;52555;-81
2023/12/11 04:39:21;;;;;;;;;0.00;0.00;;;;;16.78;100.00;100354.56;5016686;28;61600;-81
2023/12/11 04:41:46;;;;;;;;;0.00;0.00;;;;;16.83;100.00;100363.88;5017149;28;52666;-81
2023/12/11 04:44:11;;;;;;;;;0.00;0.00;;;;;16.80;100.00;100344.78;5016647;28;63674;-82
2023/12/11 04:46:37;;;;;;;;;0.00;0.00;;;;;16.85;100.00;100316.47;5017076;28;49278;-81
2023/12/11 04:49:02;;;;;;;;;0.00;0.00;;;;;16.86;100.00;100323.41;5016659;28;51998;-81
2023/12/11 04:51:28;;;;;;;;;0.00;0.00;;;;;16.83;100.00;100320.97;4999481;28;47237;-82
2023/12/11 04:53:53;;;;;;;;;0.00;0.00;;;;;16.87;100.00;100319.00;5016033;28;45406;-81
2023/12/11 04:56:18;;;;;;;;;0.00;0.00;;;;;16.92;100.00;100333.56;5017618;28;45798;-82
2023/12/11 04:58:44;;;;;;;;;0.00;0.00;;;;;16.89;100.00;100352.13;5016678;28;53279;-81
2023/12/11 05:01:10;;;;;;;;;0.00;0.00;;;;;16.95;100.00;100359.63;5016962;28;45385;-81
2023/12/11 05:03:35;;;;;;;;;0.00;0.00;;;;;16.99;100.00;100361.16;5016810;28;45388;-80
2023/12/11 05:06:00;;;;;;;;;0.00;0.00;;;;;17.37;100.00;100370.22;5015392;28;57506;-81
2023/12/11 05:08:26;;;;;;;;;0.00;0.00;;;;;17.56;100.00;100370.72;5016979;28;50203;-81
2023/12/11 05:10:51;;;;;;;;;0.00;0.00;;;;;17.44;100.00;100360.13;5034842;28;45579;-82
2023/12/11 05:13:16;;;;;;;;;0.00;0.00;;;;;16.87;100.00;100375.06;5019667;28;45947;-82
2023/12/11 05:15:42;;;;;;;;;0.00;0.00;;;;;16.68;100.00;100372.66;5037640;28;45385;-81
2023/12/11 05:18:07;;;;;;;;;0.00;0.00;;;;;16.31;100.00;100366.13;5036780;28;45487;-81
2023/12/11 05:20:33;;;;;;;;;0.00;0.00;;;;;16.28;100.00;100361.06;5003526;28;45486;-80
2023/12/11 05:22:58;;;;;;;;;0.00;0.00;;;;;16.23;100.00;100348.16;5017239;28;58001;-81
2023/12/11 05:25:23;;;;;;;;;0.00;0.00;;;;;16.15;100.00;100348.63;5017013;28;45270;-81
2023/12/11 05:27:48;;;;;;;;;0.00;0.00;;;;;16.20;100.00;100356.25;5016441;28;59843;-81
2023/12/11 05:30:14;;;;;;;;;0.00;0.00;;;;;16.18;100.00;100352.88;5016083;28;63273;-81
2023/12/11 05:32:39;;;;;;;;;0.00;0.00;;;;;16.16;100.00;100349.50;4998644;28;45413;-81
2023/12/11 05:35:06;;;;;;;;;0.00;0.00;;;;;16.41;100.00;100362.84;4999222;28;45679;-80
2023/12/11 05:37:31;;;;;;;;;0.00;0.00;;;;;16.36;100.00;100375.44;4999239;28;45397;-81
2023/12/11 05:39:57;;;;;;;;;0.00;0.00;;;;;16.33;100.00;100353.75;5016525;28;45479;-81
2023/12/11 05:42:22;;;;;;;;;0.00;0.00;;;;;16.28;100.00;100348.75;5015466;28;60915;-81
2023/12/11 05:44:47;;;;;;;;;0.00;0.00;;;;;16.38;100.00;100357.81;5016197;28;45388;-81
2023/12/11 05:47:13;;;;;;;;;0.00;0.00;;;;;16.31;100.00;100353.00;4998949;28;45379;-81
2023/12/11 05:49:39;;;;;;;;;0.00;0.00;;;;;16.31;100.00;100366.13;5022208;28;62405;-81
2023/12/11 05:52:04;;;;;;;;;0.00;0.00;;;;;16.24;100.00;100368.25;5035540;28;56689;-81
2023/12/11 05:54:29;;;;;;;;;0.00;0.00;;;;;16.26;100.00;100366.38;5036636;28;45302;-81
2023/12/11 05:56:55;;;;;;;;;0.00;0.00;;;;;16.33;100.00;100372.97;5017920;28;54946;-81
2023/12/11 05:59:20;;;;;;;;;0.00;0.00;;;;;16.30;100.00;100357.38;5032499;28;45301;-81
2023/12/11 06:01:47;;;;;;;;;0.00;0.00;;;;;16.36;100.00;100362.31;5015953;28;45468;-81
2023/12/11 06:04:13;;;;;;;;;0.00;0.00;;;;;16.31;100.00;100359.09;5016535;28;45271;-81
2023/12/11 06:06:38;;;;;;;;;0.00;0.00;;;;;16.26;100.00;100369.84;5016216;28;45287;-81
2023/12/11 06:09:03;;;;;;;;;0.00;0.00;;;;;16.48;100.00;100381.72;5019181;28;45758;-81
2023/12/11 06:11:29;;;;;;;;;0.00;0.00;;;;;16.26;100.00;100380.34;5031942;28;57774;-81
2023/12/11 06:13:54;;;;;;;;;0.00;0.00;;;;;16.35;100.00;100384.22;5055940;28;53857;-81
2023/12/11 06:16:20;;;;;;;;;0.00;0.00;;;;;16.36;100.00;100398.19;5037390;28;50927;-80
2023/12/11 06:18:45;;;;;;;;;0.00;0.00;;;;;16.48;100.00;100386.16;5056977;28;46026;-81
2023/12/11 06:21:18;;;;;;;;;0.00;0.00;;;;;16.51;100.00;100391.19;5038339;28;45469;-80
2023/12/11 06:23:43;;;;;;;;;9.00;9.00;;;;;16.43;100.00;100392.50;5035982;28;45291;-80
2023/12/11 06:26:09;;;;;;;;;0.00;0.00;;;;;16.47;100.00;100385.28;5035518;28;59781;-80
2023/12/11 06:28:34;;;;;;;;;0.00;0.00;;;;;16.43;100.00;100386.41;5035387;28;55524;-80
2023/12/11 06:30:59;;;;;;;;;0.00;0.00;;;;;16.28;100.00;100384.69;5034469;28;54501;-81
2023/12/11 06:33:25;;;;;;;;;0.00;0.00;;;;;16.24;100.00;100399.78;5035642;28;50809;-81
2023/12/11 06:35:50;;;;;;;;;0.00;0.00;;;;;16.22;100.00;100391.16;5035458;28;48649;-81
2023/12/11 06:38:15;;;;;;;;;0.00;0.00;;;;;16.25;100.00;100411.94;5035802;28;46187;-81
2023/12/11 06:40:41;;;;;;;;;0.00;0.00;;;;;16.00;100.00;100415.16;5035233;28;56687;-81
2023/12/11 06:43:06;;;;;;;;;0.00;0.00;;;;;15.88;100.00;100400.97;5016868;28;45370;-80
2023/12/11 06:45:32;;;;;;;;;0.00;0.00;;;;;15.91;100.00;100407.78;5021540;28;50647;-80
2023/12/11 06:47:57;;;;;;;;;0.00;0.00;;;;;15.81;100.00;100425.84;5022472;28;45763;-85
2023/12/11 06:50:22;;;;;;;;;0.00;0.00;;;;;15.91;100.00;100406.00;5018204;28;45443;-85
2023/12/11 06:52:48;;;;;;;;;0.00;0.00;;;;;16.05;100.00;100408.72;5040844;28;45757;-87
2023/12/11 06:55:13;;;;;;;;;0.00;0.00;;;;;16.01;100.00;100404.56;5046677;28;45408;-87
2023/12/11 06:57:39;;;;;;;;;0.00;0.00;;;;;16.08;100.00;100401.59;5030047;28;49781;-86
2023/12/11 07:00:05;;;;;;;;;0.00;0.00;;;;;16.08;100.00;100401.59;5047430;28;45361;-88
2023/12/11 07:02:31;;;;;;;;;0.00;0.00;;;;;16.15;100.00;100403.75;5012105;28;45354;-85
2023/12/11 07:04:56;;;;;;;;;0.00;0.00;;;;;16.11;100.00;100399.63;5042109;28;45551;-84
2023/12/11 07:07:22;;;;;;;;;0.00;0.00;;;;;16.18;100.00;100405.38;5039192;28;46244;-85
2023/12/11 07:09:47;;;;;;;;;0.00;0.00;;;;;16.35;100.00;100423.63;5020697;28;45454;-86
2023/12/11 07:12:13;;;;;;;;;0.00;0.00;;;;;16.22;100.00;100420.88;5039256;28;45317;-85
2023/12/11 07:14:39;;;;;;;;;0.00;0.00;;;;;16.12;100.00;100440.72;5020706;28;45599;-84
2023/12/11 07:17:04;;;;;;;;;0.00;0.00;;;;;16.03;100.00;100451.75;5036987;28;46223;-84
2023/12/11 07:19:30;;;;;;;;;0.00;0.00;;;;;16.14;100.00;100446.72;5039312;28;45352;-83
2023/12/11 07:21:55;;;;;;;;;0.00;0.00;;;;;16.14;100.00;100440.59;5038460;28;55598;-83
2023/12/11 07:24:20;;;;;;;;;0.00;0.00;;;;;16.04;100.00;100441.13;5037897;28;51779;-83
2023/12/11 07:26:46;;;;;;;;;0.00;0.00;;;;;16.30;100.00;100454.56;5020729;28;46231;-83
2023/12/11 07:29:11;;;;;;;;;0.00;0.00;;;;;16.30;100.00;100466.84;5038401;28;45448;-85
2023/12/11 07:31:39;;;;;;;;;0.00;0.00;;;;;16.41;100.00;100457.41;5027612;28;45382;-83
2023/12/11 07:34:04;;;;;;;;;0.00;0.00;;;;;15.96;100.00;100480.09;5029040;28;45349;-82
2023/12/11 07:36:29;;;;;;;;;0.00;0.00;;;;;16.29;100.00;100489.66;5037099;28;52178;-82
2023/12/11 07:38:55;;;;;;;;;0.00;0.00;;;;;16.34;100.00;100484.13;5038534;28;45447;-81
2023/12/11 07:41:21;;;;;;;;;0.00;0.00;;;;;16.32;100.00;100494.72;5037808;28;58226;-82
2023/12/11 07:43:47;;;;;;;;;0.00;0.00;;;;;16.31;100.00;100482.53;5011426;28;45383;-81
2023/12/11 07:46:16;;;;;;;;;0.00;0.00;;;;;15.97;100.00;100489.69;5034673;28;58293;-81
2023/12/11 07:48:42;;;;;;;;;0.00;0.00;;;;;15.92;100.00;100489.09;5037541;28;45372;-82
2023/12/11 07:51:19;;;;;;;;;0.00;0.00;;;;;15.94;100.00;100478.50;5037678;28;57148;-81
2023/12/11 07:53:45;;;;;;;;;0.00;0.00;;;;;15.82;100.00;100483.50;5038404;28;45281;-81
2023/12/11 07:56:20;;;;;;;;;0.00;0.00;;;;;15.80;100.00;100495.00;5020699;28;45429;-82
2023/12/11 07:58:46;;;;;;;;;0.00;0.00;;;;;15.70;100.00;100501.66;5037984;28;45335;-81
2023/12/11 08:01:11;;;;;;;;;0.00;0.00;;;;;15.70;100.00;100512.16;5020537;28;45322;-82
2023/12/11 08:03:37;;;;;;;;;0.00;0.00;;;;;15.71;100.00;100517.28;5036919;28;45447;-84
2023/12/11 08:06:02;;;;;;;;;0.00;0.00;;;;;15.68;100.00;100518.31;5036717;28;58126;-81
2023/12/11 08:08:28;;;;;;;;;0.00;0.00;;;;;15.65;100.00;100512.38;5038195;28;45375;-82
2023/12/11 08:10:54;;;;;;;;;0.00;0.00;;;;;15.64;100.00;100515.97;5028755;28;45864;-82
2023/12/11 08:13:19;;;;;;;;;1.00;1.00;;;;;15.62;100.00;100520.41;5019987;28;45365;-82
2023/12/11 08:15:45;;;;;;;;;0.00;0.00;;;;;15.65;100.00;100530.75;5037448;28;54098;-81
2023/12/11 08:18:10;;;;;;;;;0.00;0.00;;;;;15.71;100.00;100524.31;5019999;28;45442;-81
2023/12/11 08:20:35;;;;;;;;;0.00;0.00;;;;;15.66;100.00;100541.16;5037825;28;49655;-81
2023/12/11 08:23:01;;;;;;;;;0.00;0.00;;;;;15.68;100.00;100536.69;5037769;28;45448;-81
2023/12/11 08:25:26;;;;;;;;;0.00;0.00;;;;;15.68;100.00;100547.19;5036740;28;66280;-82
2023/12/11 08:27:52;;;;;;;;;0.00;0.00;;;;;15.76;100.00;100538.09;5037761;28;45464;-81
2023/12/11 08:30:17;;;;;;;;;0.00;0.00;;;;;15.71;100.00;100551.41;5037353;28;53966;-82
2023/12/11 08:32:42;;;;;;;;;0.00;0.00;;;;;15.82;100.00;100546.50;5019577;28;48679;-81
2023/12/11 08:35:08;;;;;;;;;0.00;0.00;;;;;15.71;100.00;100558.44;5037299;28;54934;-82
2023/12/11 08:37:34;;;;;;;;;0.00;0.00;;;;;15.78;100.00;100563.31;5037560;28;45437;-82
2023/12/11 08:39:59;;;;;;;;;0.00;0.00;;;;;15.82;100.00;100557.00;5019607;28;45424;-81
2023/12/11 08:42:25;;;;;;;;;0.00;0.00;;;;;15.77;100.00;100566.03;5037662;28;45397;-82
2023/12/11 08:44:50;;;;;;;;;0.00;0.00;;;;;15.83;100.00;100560.44;5022854;28;47289;-82
2023/12/11 08:47:16;;;;;;;;;0.00;0.00;;;;;15.84;100.00;100568.25;5015723;28;49973;-82
2023/12/11 08:49:42;;;;;;;;;0.25;0.25;;;;;15.84;100.00;100577.88;5017575;28;45350;-81
2023/12/11 08:52:08;;;;;;;;;0.00;0.00;;;;;15.90;100.00;100568.81;5017601;28;45389;-82
2023/12/11 08:54:33;;;;;;;;;0.00;0.00;;;;;15.94;100.00;100567.75;5017033;28;46659;-82
2023/12/11 08:56:58;;;;;;;;;0.00;0.00;;;;;15.99;100.00;100576.19;5017522;28;47957;-82
2023/12/11 08:59:24;;;;;;;;;0.00;0.00;;;;;15.82;100.00;100587.63;4999206;28;53713;-82
2023/12/11 09:01:49;;;;;;;;;0.00;0.00;;;;;15.95;100.00;100591.28;5017322;28;45386;-81
2023/12/11 09:04:14;;;;;;;;;0.00;0.00;;;;;15.82;100.00;100596.34;5018264;28;51159;-82
2023/12/11 09:06:40;;;;;;;;;0.00;0.00;;;;;15.85;100.00;100588.28;5018303;28;57388;-82
2023/12/11 09:09:05;;;;;;;;;0.00;0.00;;;;;15.80;100.00;100594.72;5004956;28;45457;-82
2023/12/11 09:11:31;;;;;;;;;0.00;0.00;;;;;15.76;100.00;100601.06;5020696;28;45401;-82
2023/12/11 09:13:56;;;;;;;;;0.00;0.00;;;;;15.81;100.00;100593.81;5038207;28;48704;-82
2023/12/11 09:16:21;;;;;;;;;0.00;0.00;;;;;15.74;100.00;100602.94;5037532;28;58159;-82
2023/12/11 09:18:47;;;;;;;;;0.00;0.00;;;;;15.73;100.00;100602.06;5036940;28;52218;-82
2023/12/11 09:21:12;;;;;;;;;0.00;0.00;;;;;15.74;100.00;100600.31;5037133;28;45340;-82
2023/12/11 09:23:37;;;;;;;;;0.00;0.00;;;;;15.73;100.00;100602.06;5018853;28;45601;-82
2023/12/11 09:26:03;;;;;;;;;0.00;0.00;;;;;15.70;100.00;100614.50;5038776;28;53556;-81
2023/12/11 09:28:28;;;;;;;;;0.00;0.00;;;;;15.52;100.00;100605.78;5039831;28;45417;-82
2023/12/11 09:30:54;;;;;;;;;0.00;0.00;;;;;15.54;100.00;100606.56;5036545;28;54838;-82
2023/12/11 09:33:19;;;;;;;;;0.00;0.00;;;;;15.51;100.00;100615.44;5036714;28;46282;-82
2023/12/11 09:35:45;;;;;;;;;0.75;0.75;;;;;15.47;100.00;100616.50;5036259;28;55132;-82
2023/12/11 09:38:11;;;;;;;;;0.00;0.00;;;;;15.48;100.00;100619.06;5036378;28;46545;-81
2023/12/11 09:40:37;;;;;;;;;0.00;0.00;;;;;15.48;100.00;100629.53;5036740;28;45520;-83
2023/12/11 09:43:03;;;;;;;;;0.00;0.00;;;;;15.54;100.00;100627.53;5018553;28;46092;-82
2023/12/11 09:45:29;;;;;;;;;0.00;0.00;;;;;15.59;100.00;100629.00;5018603;28;45330;-82
2023/12/11 09:47:55;;;;;;;;;0.00;0.00;;;;;15.64;100.00;100629.63;5019077;28;45888;-81
2023/12/11 09:50:20;;;;;;;;;0.00;0.00;;;;;15.60;100.00;100653.44;5018830;28;45405;-83
2023/12/11 09:52:46;;;;;;;;;0.00;0.00;;;;;15.65;100.00;100651.44;5036061;28;46166;-82
2023/12/11 09:55:11;;;;;;;;;0.00;0.00;;;;;15.71;100.00;100647.66;5036645;28;45440;-82
2023/12/11 09:57:38;;;;;;;;;0.00;0.00;;;;;15.65;100.00;100647.03;5035515;28;45520;-81
2023/12/11 10:00:04;;;;;;;;;0.00;0.00;;;;;15.60;100.00;100646.44;5018683;28;45514;-82
2023/12/11 10:02:29;;;;;;;;;0.00;0.00;;;;;15.67;100.00;100658.34;5036399;28;46558;-82
2023/12/11 10:05:03;;;;;;;;;0.00;0.00;;;;;15.72;100.00;100658.09;5036404;28;45323;-82
2023/12/11 10:07:29;;;;;;;;;0.00;0.00;;;;;15.75;100.00;100660.59;5036210;28;45384;-82
2023/12/11 10:09:54;;;;;;;;;0.00;0.00;;;;;15.87;100.00;100654.69;5017958;28;45587;-82
2023/12/11 10:12:20;;;;;;;;;0.00;0.00;;;;;15.93;100.00;100653.50;5035950;28;52430;-82
2023/12/11 10:15:02;;;;;;;;;0.00;0.00;;;;;16.07;100.00;100671.19;5036148;28;45346;-82
2023/12/11 10:17:28;;;;;;;;;0.00;0.00;;;;;16.05;100.00;100668.63;5018585;28;45509;-82
2023/12/11 10:19:53;;;;;;;;;0.00;0.00;;;;;16.19;100.00;100672.28;5001983;28;45460;-82
2023/12/11 10:22:27;;;;;;;;;0.00;0.00;;;;;16.31;100.00;100669.03;5035746;28;45403;-82
2023/12/11 10:24:52;;;;;;;;;0.00;0.00;;;;;16.30;100.00;100676.97;5001755;28;45482;-82
2023/12/11 10:27:24;;;;;;;;;0.00;0.00;;;;;16.36;100.00;100658.25;5036188;28;45568;-82
2023/12/11 10:30:08;;;;;;;;;0.00;0.00;;;;;16.29;100.00;100667.38;5035433;28;45414;-82
2023/12/11 10:32:33;;;;;;;;;0.00;0.00;;;;;16.49;100.00;100668.94;5018105;28;45476;-81
2023/12/11 10:34:59;;;;;;;;;0.00;0.00;;;;;16.55;100.00;100672.09;5036123;28;45405;-82
2023/12/11 10:37:31;;;;;;;;;0.00;0.00;;;;;16.51;100.00;100674.94;5035816;28;45365;-82
2023/12/11 10:39:57;;;;;;;;;0.00;0.00;;;;;16.70;100.00;100664.28;5035978;28;45427;-81
2023/12/11 10:42:23;;;;;;;;;0.00;0.00;;;;;16.85;100.00;100670.50;5035821;28;45582;-82
2023/12/11 10:44:48;;;;;;;;;0.00;0.00;;;;;16.88;100.00;100668.53;5017774;28;45469;-81
2023/12/11 10:47:15;;;;;;;;;0.00;0.00;;;;;17.04;100.00;100668.53;5035865;28;45163;-82
2023/12/11 10:49:40;;;;;;;;;0.00;0.00;;;;;17.10;100.00;100675.22;5035106;28;64461;-81
2023/12/11 10:52:06;;;;;;;;;0.00;0.00;;;;;17.27;100.00;100667.19;5017348;28;45419;-82
2023/12/11 10:54:32;;;;;;;;;0.00;0.00;;;;;17.42;100.00;100678.59;5035652;28;45484;-83
2023/12/11 10:57:00;;;;;;;;;0.00;0.00;;;;;17.94;100.00;100672.91;5018271;28;45446;-82
2023/12/11 10:59:27;;;;;;;;;0.00;0.00;;;;;18.13;100.00;100675.25;5035787;28;45322;-82
2023/12/11 11:01:53;;;;;;;;;0.00;0.00;;;;;18.41;100.00;100660.38;5017727;28;50771;-82
2023/12/11 11:04:19;;;;;;;;;0.00;0.00;;;;;18.60;100.00;100657.41;5017615;28;45551;-82
2023/12/11 11:07:04;;;;;;;;;0.00;0.00;;;;;18.81;100.00;100684.19;5017487;28;45389;-83
2023/12/11 11:09:35;;;;;;;;;0.00;0.00;;;;;19.13;100.00;100674.22;5010699;28;45389;-82
2023/12/11 11:12:10;;;;;;;;;0.00;0.00;;;;;19.42;100.00;100679.34;5016058;28;46144;-82